createdAt,value
2019-04-27T00:00:53.512Z,46.27
2019-04-27T00:03:36.488Z,44.87
2019-04-27T00:06:08.805Z,49.37
2019-04-27T00:08:58.029Z,43.47
2019-04-27T00:11:37.470Z,43.77
2019-04-27T00:14:10.381Z,39.67
2019-04-27T00:17:03.893Z,41.43
2019-04-27T00:19:53.726Z,38.20
2019-04-27T00:22:30.569Z,45.50
2019-04-27T00:25:00.710Z,36.37
2019-04-27T00:27:30.843Z,33.53
2019-04-27T00:30:01.161Z,38.37
2019-04-27T00:32:33.230Z,34.77
2019-04-27T00:35:03.854Z,38.50
2019-04-27T00:37:52.950Z,38.30
2019-04-27T00:40:29.097Z,44.43
2019-04-27T00:42:59.237Z,37.87
2019-04-27T00:45:29.522Z,36.23
2019-04-27T00:48:00.029Z,41.73
2019-04-27T00:50:31.521Z,50.73
2019-04-27T00:53:03.391Z,37.33
2019-04-27T00:55:35.390Z,34.37
2019-04-27T00:58:24.650Z,42.90
2019-04-27T01:01:05.162Z,37.57
2019-04-27T01:03:43.110Z,40.07
2019-04-27T01:06:14.767Z,44.60
2019-04-27T01:08:45.158Z,39.53
2019-04-27T01:11:15.357Z,34.23
2019-04-27T01:13:45.485Z,37.20
2019-04-27T01:16:21.543Z,42.73
2019-04-27T01:18:48.895Z,49.63
2019-04-27T01:21:19.458Z,38.70
2019-04-27T01:23:49.775Z,42.53
2019-04-27T01:26:45.286Z,40.57
2019-04-27T01:29:19.208Z,40.33
2019-04-27T01:31:49.641Z,45.13
2019-04-27T01:34:19.903Z,37.87
2019-04-27T01:36:50.067Z,40.03
2019-04-27T01:39:20.705Z,54.90
2019-04-27T01:41:50.918Z,40.67
2019-04-27T01:44:21.069Z,36.00
2019-04-27T01:46:51.194Z,38.47
2019-04-27T01:49:21.421Z,42.13
2019-04-27T01:51:51.705Z,44.10
2019-04-27T01:54:23.528Z,39.20
2019-04-27T01:56:53.644Z,42.57
2019-04-27T01:59:23.900Z,39.00
2019-04-27T02:02:22.118Z,42.00
2019-04-27T02:05:14.042Z,50.10
2019-04-27T02:07:44.809Z,40.23
2019-04-27T02:10:16.507Z,43.63
2019-04-27T02:12:48.612Z,43.53
2019-04-27T02:15:19.127Z,42.93
2019-04-27T02:17:51.065Z,46.60
2019-04-27T02:20:21.569Z,44.23
2019-04-27T02:22:51.835Z,50.37
2019-04-27T02:25:21.971Z,43.97
2019-04-27T02:27:57.274Z,47.80
2019-04-27T02:30:46.668Z,54.17
2019-04-27T02:33:35.810Z,49.43
2019-04-27T02:36:06.053Z,50.03
2019-04-27T02:38:36.202Z,45.77
2019-04-27T02:41:10.026Z,50.33
2019-04-27T02:44:03.473Z,51.13
2019-04-27T02:46:33.679Z,53.23
2019-04-27T02:49:06.946Z,48.43
2019-04-27T02:51:55.798Z,51.40
2019-04-27T02:54:26.025Z,53.80
2019-04-27T02:56:56.164Z,58.23
2019-04-27T02:59:26.321Z,68.00
2019-04-27T03:02:04.840Z,64.10
2019-04-27T03:04:34.975Z,74.50
2019-04-27T03:07:06.256Z,79.80
2019-04-27T03:09:36.525Z,79.67
2019-04-27T03:12:06.738Z,62.43
2019-04-27T03:14:52.997Z,72.10
2019-04-27T03:17:33.953Z,66.03
2019-04-27T03:20:10.587Z,65.87
2019-04-27T03:22:54.277Z,63.30
2019-04-27T03:25:52.348Z,65.57
2019-04-27T03:28:22.636Z,67.47
2019-04-27T03:30:53.752Z,69.13
2019-04-27T03:33:24.139Z,76.17
2019-04-27T03:35:54.368Z,73.97
2019-04-27T03:38:24.742Z,68.40
2019-04-27T03:40:55.021Z,67.20
2019-04-27T03:43:25.382Z,64.97
2019-04-27T03:45:55.590Z,73.87
2019-04-27T03:48:25.787Z,68.93
2019-04-27T03:51:24.274Z,54.60
2019-04-27T03:54:07.813Z,58.17
2019-04-27T03:56:46.607Z,59.27
2019-04-27T03:59:40.569Z,57.20
2019-04-27T04:02:11.046Z,48.17
2019-04-27T04:04:41.266Z,50.43
2019-04-27T04:07:16.371Z,54.77
2019-04-27T04:09:46.594Z,47.77
2019-04-27T04:12:35.769Z,55.30
2019-04-27T04:15:10.124Z,51.70
2019-04-27T04:17:40.522Z,44.37
2019-04-27T04:20:10.894Z,40.10
2019-04-27T04:22:41.097Z,42.50
2019-04-27T04:25:11.493Z,32.10
2019-04-27T04:27:42.879Z,41.17
2019-04-27T04:30:13.689Z,34.47
2019-04-27T04:32:44.823Z,35.33
2019-04-27T04:35:21.831Z,34.10
2019-04-27T04:38:02.826Z,33.57
2019-04-27T04:40:40.097Z,39.40
2019-04-27T04:43:16.143Z,29.53
2019-04-27T04:45:59.578Z,31.77
2019-04-27T04:48:30.202Z,31.37
2019-04-27T04:51:00.656Z,30.90
2019-04-27T04:53:30.806Z,34.80
2019-04-27T04:56:00.942Z,38.77
2019-04-27T04:58:31.455Z,37.07
2019-04-27T05:01:02.057Z,40.37
2019-04-27T05:03:32.189Z,32.30
2019-04-27T05:06:02.399Z,37.60
2019-04-27T05:08:32.482Z,24.47
2019-04-27T05:11:02.651Z,31.20
2019-04-27T05:13:32.877Z,31.47
2019-04-27T05:16:04.278Z,26.90
2019-04-27T05:18:34.454Z,27.67
2019-04-27T05:21:10.591Z,29.90
2019-04-27T05:23:40.706Z,26.30
2019-04-27T05:26:10.891Z,29.90
2019-04-27T05:28:41.094Z,21.20
2019-04-27T05:31:11.244Z,29.97
2019-04-27T05:33:42.314Z,23.27
2019-04-27T05:36:12.526Z,27.07
2019-04-27T05:38:45.896Z,21.93
2019-04-27T05:41:14.448Z,23.23
2019-04-27T05:44:07.680Z,19.57
2019-04-27T05:47:11.667Z,24.27
2019-04-27T05:49:44.362Z,21.77
2019-04-27T05:52:30.914Z,18.90
2019-04-27T05:55:01.016Z,32.27
2019-04-27T05:57:31.688Z,25.10
2019-04-27T06:00:02.778Z,30.03
2019-04-27T06:02:33.830Z,21.60
2019-04-27T06:05:04.585Z,27.53
2019-04-27T06:07:34.866Z,31.17
2019-04-27T06:10:05.849Z,23.77
2019-04-27T06:12:36.023Z,19.97
2019-04-27T06:15:07.322Z,28.73
2019-04-27T06:17:38.708Z,31.97
2019-04-27T06:20:09.248Z,27.10
2019-04-27T06:22:39.382Z,32.77
2019-04-27T06:25:11.814Z,27.77
2019-04-27T06:27:41.374Z,30.07
2019-04-27T06:30:11.660Z,29.00
2019-04-27T06:32:44.602Z,38.13
2019-04-27T06:35:18.808Z,35.93
2019-04-27T06:37:49.389Z,28.70
2019-04-27T06:40:19.625Z,39.07
2019-04-27T06:42:49.814Z,35.90
2019-04-27T06:45:20.095Z,39.93
2019-04-27T06:47:51.310Z,38.27
2019-04-27T06:50:21.662Z,36.73
2019-04-27T06:52:51.905Z,38.97
2019-04-27T06:55:22.192Z,44.03
2019-04-27T06:57:52.405Z,38.60
2019-04-27T07:00:22.573Z,42.90
2019-04-27T07:02:55.202Z,43.37
2019-04-27T07:05:24.804Z,46.07
2019-04-27T07:07:54.941Z,41.70
2019-04-27T07:10:25.178Z,45.90
2019-04-27T07:12:55.473Z,36.47
2019-04-27T07:15:25.695Z,46.90
2019-04-27T07:17:55.897Z,42.20
2019-04-27T07:20:26.106Z,43.10
2019-04-27T07:22:56.363Z,40.67
2019-04-27T07:25:26.466Z,46.63
2019-04-27T07:27:56.633Z,44.40
2019-04-27T07:30:28.724Z,42.47
2019-04-27T07:33:00.365Z,46.60
2019-04-27T07:35:30.646Z,53.90
2019-04-27T07:38:00.872Z,38.83
2019-04-27T07:40:31.192Z,46.00
2019-04-27T07:43:09.099Z,43.40
2019-04-27T07:45:39.669Z,44.47
2019-04-27T07:48:09.877Z,42.20
2019-04-27T07:50:39.993Z,40.70
2019-04-27T07:53:10.192Z,45.90
2019-04-27T07:55:40.398Z,47.03
2019-04-27T07:58:10.604Z,51.37
2019-04-27T08:00:44.016Z,42.23
2019-04-27T08:03:14.250Z,42.83
2019-04-27T08:05:44.485Z,40.93
2019-04-27T08:08:14.610Z,42.87
2019-04-27T08:10:47.601Z,45.43
2019-04-27T08:13:16.715Z,45.70
2019-04-27T08:15:47.077Z,43.73
2019-04-27T08:18:18.966Z,43.77
2019-04-27T08:20:49.313Z,40.63
2019-04-27T08:23:19.622Z,45.00
2019-04-27T08:25:49.946Z,51.77
2019-04-27T08:28:39.098Z,45.17
2019-04-27T08:31:28.686Z,50.43
2019-04-27T08:34:00.125Z,43.13
2019-04-27T08:36:30.398Z,41.07
2019-04-27T08:39:00.658Z,43.33
2019-04-27T08:41:32.497Z,40.50
2019-04-27T08:44:02.642Z,40.80
2019-04-27T08:46:32.714Z,40.43
2019-04-27T08:49:03.953Z,41.50
2019-04-27T08:51:34.096Z,48.80
2019-04-27T08:54:04.347Z,44.13
2019-04-27T08:56:34.429Z,45.87
2019-04-27T08:59:04.705Z,41.57
2019-04-27T09:01:34.958Z,36.67
2019-04-27T09:04:05.290Z,44.97
2019-04-27T09:06:38.155Z,41.70
2019-04-27T09:09:19.550Z,41.87
2019-04-27T09:12:20.598Z,38.50
2019-04-27T09:14:59.229Z,37.27
2019-04-27T09:17:36.066Z,39.80
2019-04-27T09:20:21.541Z,40.83
2019-04-27T09:22:51.774Z,43.83
2019-04-27T09:25:21.855Z,44.33
2019-04-27T09:27:52.017Z,41.20
2019-04-27T09:30:22.370Z,38.63
2019-04-27T09:32:52.462Z,42.87
2019-04-27T09:35:22.665Z,40.83
2019-04-27T09:37:52.791Z,34.47
2019-04-27T09:40:23.042Z,34.97
2019-04-27T09:42:53.118Z,38.37
2019-04-27T09:45:23.358Z,34.50
2019-04-27T09:47:53.482Z,36.80
2019-04-27T09:50:23.869Z,42.30
2019-04-27T09:52:55.582Z,33.43
2019-04-27T09:55:26.433Z,48.30
2019-04-27T09:57:57.801Z,33.53
2019-04-27T10:00:28.347Z,31.73
2019-04-27T10:02:58.855Z,33.60
2019-04-27T10:05:28.943Z,37.67
2019-04-27T10:07:59.301Z,38.47
2019-04-27T10:10:29.567Z,32.83
2019-04-27T10:12:59.913Z,29.63
2019-04-27T10:15:30.027Z,30.40
2019-04-27T10:18:00.295Z,35.13
2019-04-27T10:20:30.453Z,32.97
2019-04-27T10:23:00.519Z,34.40
2019-04-27T10:25:30.825Z,32.50
2019-04-27T10:28:00.997Z,33.03
2019-04-27T10:30:31.733Z,31.57
2019-04-27T10:33:02.190Z,35.87
2019-04-27T10:35:32.513Z,33.43
2019-04-27T10:38:02.589Z,34.10
2019-04-27T10:40:32.658Z,38.10
2019-04-27T10:43:02.847Z,40.23
2019-04-27T10:45:33.545Z,34.67
2019-04-27T10:48:03.733Z,34.13
2019-04-27T10:50:33.878Z,34.50
2019-04-27T10:53:04.063Z,38.03
2019-04-27T10:55:34.181Z,33.37
2019-04-27T10:58:04.814Z,36.43
2019-04-27T11:00:42.908Z,34.87
2019-04-27T11:03:16.615Z,34.97
2019-04-27T11:06:09.878Z,29.07
2019-04-27T11:08:48.368Z,34.63
2019-04-27T11:11:18.747Z,32.93
2019-04-27T11:13:48.969Z,37.00
2019-04-27T11:16:20.218Z,31.23
2019-04-27T11:18:50.385Z,36.03
2019-04-27T11:21:20.438Z,32.37
2019-04-27T11:23:50.685Z,30.97
2019-04-27T11:26:20.885Z,28.50
2019-04-27T11:28:51.029Z,32.97
2019-04-27T11:31:21.337Z,29.90
2019-04-27T11:33:52.894Z,31.97
2019-04-27T11:36:47.381Z,35.17
2019-04-27T11:39:19.655Z,33.97
2019-04-27T11:41:49.493Z,35.40
2019-04-27T11:44:19.658Z,28.60
2019-04-27T11:46:49.934Z,38.37
2019-04-27T11:49:21.113Z,28.10
2019-04-27T11:51:51.856Z,28.33
2019-04-27T11:54:22.119Z,28.97
2019-04-27T11:56:52.295Z,31.80
2019-04-27T11:59:22.434Z,30.43
2019-04-27T12:01:52.678Z,31.13
2019-04-27T12:04:22.953Z,31.17
2019-04-27T12:06:53.050Z,28.67
2019-04-27T12:09:23.386Z,31.27
2019-04-27T12:11:53.526Z,27.10
2019-04-27T12:14:23.561Z,29.70
2019-04-27T12:16:53.674Z,35.87
2019-04-27T12:19:26.679Z,38.60
2019-04-27T12:21:57.319Z,32.83
2019-04-27T12:24:27.630Z,29.20
2019-04-27T12:27:16.026Z,29.00
2019-04-27T12:30:17.442Z,30.90
2019-04-27T12:32:47.781Z,26.93
2019-04-27T12:35:17.946Z,32.93
2019-04-27T12:37:48.138Z,28.53
2019-04-27T12:40:18.183Z,29.87
2019-04-27T12:42:51.276Z,32.07
2019-04-27T12:45:21.621Z,29.30
2019-04-27T12:47:51.775Z,29.33
2019-04-27T12:50:22.586Z,30.87
2019-04-27T12:52:56.508Z,38.80
2019-04-27T12:55:46.379Z,30.07
2019-04-27T12:58:34.343Z,31.43
2019-04-27T13:01:07.302Z,35.77
2019-04-27T13:03:36.917Z,30.83
2019-04-27T13:06:07.280Z,31.53
2019-04-27T13:08:37.477Z,32.77
2019-04-27T13:11:07.526Z,27.10
2019-04-27T13:13:37.674Z,30.60
2019-04-27T13:16:07.947Z,31.53
2019-04-27T13:18:38.188Z,31.00
2019-04-27T13:21:08.278Z,31.17
2019-04-27T13:23:38.496Z,32.00
2019-04-27T13:26:08.746Z,41.67
2019-04-27T13:28:38.973Z,42.03
2019-04-27T13:31:09.429Z,30.00
2019-04-27T13:33:39.730Z,33.53
2019-04-27T13:36:09.892Z,31.27
2019-04-27T13:38:40.302Z,36.10
2019-04-27T13:41:12.131Z,35.77
2019-04-27T13:43:42.258Z,31.40
2019-04-27T13:46:20.058Z,35.70
2019-04-27T13:49:21.618Z,42.13
2019-04-27T13:52:13.886Z,38.13
2019-04-27T13:54:45.749Z,35.77
2019-04-27T13:57:16.398Z,41.43
2019-04-27T13:59:47.830Z,35.50
2019-04-27T14:02:19.225Z,44.00
2019-04-27T14:04:49.885Z,36.23
2019-04-27T14:07:20.070Z,36.30
2019-04-27T14:09:50.571Z,33.67
2019-04-27T14:12:22.252Z,36.90
2019-04-27T14:14:52.715Z,35.07
2019-04-27T14:17:23.111Z,33.43
2019-04-27T14:19:53.158Z,38.23
2019-04-27T14:22:23.334Z,35.00
2019-04-27T14:24:53.471Z,31.13
2019-04-27T14:27:26.173Z,36.63
2019-04-27T14:29:57.656Z,37.23
2019-04-27T14:32:28.730Z,36.00
2019-04-27T14:34:59.268Z,37.67
2019-04-27T14:37:31.658Z,34.37
2019-04-27T14:40:01.841Z,32.17
2019-04-27T14:42:34.573Z,32.50
2019-04-27T14:45:08.852Z,32.63
2019-04-27T14:47:39.937Z,33.93
2019-04-27T14:50:11.002Z,35.17
2019-04-27T14:52:41.829Z,30.13
2019-04-27T14:55:12.685Z,27.90
2019-04-27T14:57:42.852Z,30.50
2019-04-27T15:00:15.205Z,34.87
2019-04-27T15:02:45.561Z,34.27
2019-04-27T15:05:15.702Z,34.50
2019-04-27T15:07:46.931Z,36.30
2019-04-27T15:10:17.327Z,34.20
2019-04-27T15:12:47.741Z,33.13
2019-04-27T15:15:18.167Z,30.00
2019-04-27T15:17:49.449Z,32.03
2019-04-27T15:20:27.197Z,49.37
2019-04-27T15:23:00.097Z,41.60
2019-04-27T15:25:34.985Z,58.73
2019-04-27T15:28:07.350Z,46.53
2019-04-27T15:31:04.568Z,44.37
2019-04-27T15:33:54.701Z,46.93
2019-04-27T15:36:52.860Z,38.83
2019-04-27T15:39:39.513Z,32.67
2019-04-27T15:42:11.748Z,32.20
2019-04-27T15:44:44.122Z,32.00
2019-04-27T15:47:13.987Z,36.10
2019-04-27T15:49:49.843Z,36.80
2019-04-27T15:52:17.850Z,42.27
2019-04-27T15:54:48.363Z,35.97
2019-04-27T15:57:20.383Z,32.63
2019-04-27T15:59:50.324Z,33.33
2019-04-27T16:02:20.462Z,37.13
2019-04-27T16:04:53.397Z,40.93
2019-04-27T16:07:24.856Z,34.67
2019-04-27T16:09:58.515Z,33.10
2019-04-27T16:12:28.355Z,36.67
2019-04-27T16:14:58.257Z,34.17
2019-04-27T16:17:31.666Z,34.70
2019-04-27T16:20:00.249Z,37.47
2019-04-27T16:22:30.456Z,35.13
2019-04-27T16:25:03.652Z,34.53
2019-04-27T16:27:34.201Z,34.37
2019-04-27T16:30:09.697Z,35.97
2019-04-27T16:32:36.446Z,33.13
2019-04-27T16:35:07.899Z,34.30
2019-04-27T16:38:00.129Z,41.67
2019-04-27T16:40:31.543Z,35.00
2019-04-27T16:43:01.919Z,38.47
2019-04-27T16:45:32.423Z,35.87
2019-04-27T16:48:03.634Z,32.33
2019-04-27T16:50:34.126Z,41.87
2019-04-27T16:53:04.295Z,31.30
2019-04-27T16:55:35.348Z,34.20
2019-04-27T16:58:09.640Z,32.47
2019-04-27T17:00:38.740Z,42.03
2019-04-27T17:03:10.592Z,40.20
2019-04-27T17:05:40.857Z,34.93
2019-04-27T17:08:21.471Z,38.70
2019-04-27T17:10:42.966Z,37.43
2019-04-27T17:13:14.804Z,37.60
2019-04-27T17:16:08.523Z,38.60
2019-04-27T17:18:52.621Z,36.70
2019-04-27T17:21:23.283Z,35.53
2019-04-27T17:23:58.742Z,39.53
2019-04-27T17:26:26.681Z,47.07
2019-04-27T17:29:15.674Z,39.77
2019-04-27T17:31:43.116Z,43.07
2019-04-27T17:34:13.256Z,44.77
2019-04-27T17:36:43.494Z,40.47
2019-04-27T17:39:13.689Z,41.90
2019-04-27T17:41:49.140Z,40.83
2019-04-27T17:44:19.296Z,40.97
2019-04-27T17:46:51.061Z,39.80
2019-04-27T17:49:19.683Z,42.97
2019-04-27T17:51:49.860Z,40.47
2019-04-27T17:54:20.093Z,40.17
2019-04-27T17:56:52.442Z,41.83
2019-04-27T17:59:22.126Z,39.80
2019-04-27T18:01:54.061Z,37.27
2019-04-27T18:04:24.564Z,42.30
2019-04-27T18:06:55.529Z,39.30
2019-04-27T18:09:26.782Z,36.63
2019-04-27T18:11:58.409Z,37.93
2019-04-27T18:14:32.602Z,40.47
2019-04-27T18:17:03.599Z,37.10
2019-04-27T18:19:40.236Z,37.47
2019-04-27T18:22:10.104Z,35.63
2019-04-27T18:24:45.810Z,34.87
2019-04-27T18:27:43.815Z,35.10
2019-04-27T18:30:21.326Z,34.80
2019-04-27T18:32:51.578Z,34.60
2019-04-27T18:35:26.388Z,34.70
2019-04-27T18:37:58.383Z,34.17
2019-04-27T18:40:32.207Z,36.23
2019-04-27T18:42:57.568Z,35.37
2019-04-27T18:45:28.417Z,33.00
2019-04-27T18:48:06.593Z,37.47
2019-04-27T18:50:54.429Z,34.00
2019-04-27T18:53:28.983Z,33.27
2019-04-27T18:56:04.804Z,32.53
2019-04-27T18:58:32.164Z,33.47
2019-04-27T19:01:02.438Z,35.20
2019-04-27T19:03:32.829Z,32.57
2019-04-27T19:06:03.405Z,37.43
2019-04-27T19:08:34.087Z,32.23
2019-04-27T19:11:04.947Z,33.93
2019-04-27T19:13:35.949Z,35.93
2019-04-27T19:16:06.149Z,33.87
2019-04-27T19:18:37.812Z,38.43
2019-04-27T19:21:08.753Z,36.03
2019-04-27T19:23:40.215Z,34.80
2019-04-27T19:26:32.417Z,35.90
2019-04-27T19:29:10.533Z,41.50
2019-04-27T19:31:54.111Z,39.37
2019-04-27T19:34:24.296Z,36.57
2019-04-27T19:36:54.682Z,35.53
2019-04-27T19:39:25.614Z,38.40
2019-04-27T19:42:00.257Z,34.53
2019-04-27T19:44:29.183Z,35.37
2019-04-27T19:47:00.349Z,35.80
2019-04-27T19:49:31.721Z,33.63
2019-04-27T19:52:02.307Z,35.93
2019-04-27T19:54:32.614Z,31.60
2019-04-27T19:57:02.936Z,35.33
2019-04-27T19:59:38.895Z,34.47
2019-04-27T20:02:13.628Z,34.63
2019-04-27T20:04:48.215Z,33.70
2019-04-27T20:07:18.653Z,32.80
2019-04-27T20:09:58.460Z,35.63
2019-04-27T20:12:28.878Z,35.97
2019-04-27T20:14:59.201Z,29.67
2019-04-27T20:17:31.583Z,35.37
2019-04-27T20:20:03.028Z,35.87
2019-04-27T20:22:34.247Z,33.97
2019-04-27T20:25:04.718Z,31.70
2019-04-27T20:27:46.199Z,34.93
2019-04-27T20:30:08.637Z,35.43
2019-04-27T20:32:38.926Z,28.27
2019-04-27T20:35:09.576Z,31.60
2019-04-27T20:37:41.540Z,33.00
2019-04-27T20:40:12.257Z,30.23
2019-04-27T20:42:42.510Z,33.70
2019-04-27T20:45:13.334Z,31.27
2019-04-27T20:47:43.622Z,32.87
2019-04-27T20:50:14.103Z,28.60
2019-04-27T20:53:01.545Z,24.57
2019-04-27T20:55:32.312Z,30.43
2019-04-27T20:58:02.996Z,29.03
2019-04-27T21:00:33.418Z,27.93
2019-04-27T21:03:16.013Z,32.50
2019-04-27T21:06:04.142Z,25.37
2019-04-27T21:08:36.218Z,26.37
2019-04-27T21:11:06.432Z,30.97
2019-04-27T21:13:36.651Z,27.93
2019-04-27T21:16:06.800Z,30.20
2019-04-27T21:18:36.990Z,32.77
2019-04-27T21:21:07.097Z,32.63
2019-04-27T21:23:37.258Z,28.40
2019-04-27T21:26:07.466Z,30.97
2019-04-27T21:28:37.666Z,31.53
2019-04-27T21:31:07.945Z,32.97
2019-04-27T21:33:38.143Z,36.97
2019-04-27T21:36:08.230Z,33.97
2019-04-27T21:38:38.377Z,33.47
2019-04-27T21:41:08.566Z,33.73
2019-04-27T21:43:38.782Z,34.60
2019-04-27T21:46:08.978Z,38.33
2019-04-27T21:48:39.175Z,36.87
2019-04-27T21:51:09.493Z,37.23
2019-04-27T21:54:07.693Z,39.17
2019-04-27T21:56:37.938Z,38.83
2019-04-27T21:59:08.206Z,37.77
2019-04-27T22:01:38.453Z,42.70
2019-04-27T22:04:11.437Z,41.63
2019-04-27T22:06:42.374Z,36.83
2019-04-27T22:09:14.970Z,40.80
2019-04-27T22:11:45.417Z,42.83
2019-04-27T22:14:15.706Z,39.37
2019-04-27T22:16:45.868Z,37.43
2019-04-27T22:19:16.015Z,36.67
2019-04-27T22:21:46.287Z,41.00
2019-04-27T22:24:33.538Z,36.27
2019-04-27T22:27:04.183Z,35.47
2019-04-27T22:29:34.774Z,37.17
2019-04-27T22:32:05.686Z,36.27
2019-04-27T22:34:36.288Z,36.33
2019-04-27T22:37:06.465Z,33.17
2019-04-27T22:39:43.070Z,38.77
2019-04-27T22:42:31.399Z,37.93
2019-04-27T22:45:11.630Z,39.17
2019-04-27T22:47:42.071Z,38.27
2019-04-27T22:50:13.833Z,40.03
2019-04-27T22:52:44.299Z,35.53
2019-04-27T22:55:14.443Z,32.90
2019-04-27T22:57:51.619Z,32.80
2019-04-27T23:00:32.988Z,36.47
2019-04-27T23:03:05.177Z,38.07
2019-04-27T23:05:35.318Z,33.33
2019-04-27T23:08:05.638Z,32.33
2019-04-27T23:10:35.929Z,34.03
2019-04-27T23:13:05.990Z,28.37
2019-04-27T23:15:41.447Z,37.23
2019-04-27T23:18:11.575Z,33.27
2019-04-27T23:20:42.575Z,28.47
2019-04-27T23:23:12.882Z,27.80
2019-04-27T23:25:43.116Z,31.53
2019-04-27T23:28:13.322Z,31.10
2019-04-27T23:30:50.396Z,26.90
2019-04-27T23:33:21.124Z,28.30
2019-04-27T23:35:51.719Z,27.27
2019-04-27T23:38:21.982Z,29.33
2019-04-27T23:40:52.137Z,29.83
2019-04-27T23:43:22.433Z,27.40
2019-04-27T23:45:52.784Z,32.40
2019-04-27T23:48:24.993Z,28.60
2019-04-27T23:51:00.477Z,32.30
2019-04-27T23:53:32.574Z,28.50
2019-04-27T23:56:02.685Z,30.23
2019-04-27T23:58:33.150Z,29.97
